Time;durP1;ratioP1;P1;durP2;ratioP2;P2;SDS_P1;SDS_P2;PMS_P1;PMS_P2;Temp;Humidity;BMP_temperature;BMP_pressure;BME280_temperature;BME280_humidity;BME280_pressure;Samples;Min_cycle;Max_cycle;Signal;HPM_P1;HPM_P2
2021/04/02 00:00:37;;;;;;;9.35;3.47;;;;;;;11.55;68.61;95764.03;5051403;28;20418;-51
2021/04/02 00:03:21;;;;;;;6.65;3.28;;;;;;;11.46;68.93;95763.34;5051963;28;20077;-50
2021/04/02 00:05:48;;;;;;;14.82;3.95;;;;;;;11.39;69.43;95763.94;5060141;28;20075;-49
2021/04/02 00:08:14;;;;;;;7.43;3.38;;;;;;;11.56;68.77;95762.09;5052655;28;20418;-54
2021/04/02 00:11:03;;;;;;;8.27;3.70;;;;;;;11.48;69.02;95768.44;5051647;28;20045;-49
2021/04/02 00:13:33;;;;;;;8.63;2.90;;;;;;;11.54;68.56;95765.16;5053585;28;20056;-49
2021/04/02 00:15:59;;;;;;;9.95;3.92;;;;;;;11.41;68.94;95769.03;5069398;28;20055;-50
2021/04/02 00:18:27;;;;;;;10.57;3.50;;;;;;;11.35;69.01;95760.34;5065588;28;20052;-50
2021/04/02 00:20:57;;;;;;;8.77;3.45;;;;;;;11.41;68.83;95767.09;5051492;28;20573;-49
2021/04/02 00:23:24;;;;;;;10.00;3.40;;;;;;;11.43;68.58;95766.75;5051617;28;20057;-50
2021/04/02 00:25:51;;;;;;;12.25;3.88;;;;;;;11.36;68.87;95771.94;5056887;28;20513;-51
2021/04/02 00:28:18;;;;;;;6.68;2.95;;;;;;;11.17;69.53;95769.81;5050052;28;20057;-49
2021/04/02 00:30:49;;;;;;;6.32;3.33;;;;;;;11.12;69.71;95770.06;5058315;28;20191;-49
2021/04/02 00:33:23;;;;;;;9.70;3.78;;;;;;;10.97;70.13;95760.69;5071802;28;20501;-51
2021/04/02 00:35:50;;;;;;;5.55;3.40;;;;;;;10.98;70.28;95764.97;5058648;28;20704;-51
2021/04/02 00:38:17;;;;;;;10.35;3.78;;;;;;;10.90;70.53;95758.56;5050598;28;20052;-50
2021/04/02 00:40:51;;;;;;;12.68;3.88;;;;;;;10.76;70.92;95763.53;5059136;28;20098;-53
2021/04/02 00:43:21;;;;;;;7.22;3.53;;;;;;;10.82;70.81;95770.28;5070419;28;20052;-55
2021/04/02 00:45:48;;;;;;;9.10;3.83;;;;;;;10.78;70.94;95766.66;5032750;28;20090;-55
2021/04/02 00:48:15;;;;;;;7.88;3.92;;;;;;;10.73;71.09;95767.69;5050774;28;20118;-53
2021/04/02 00:50:45;;;;;;;7.10;3.78;;;;;;;10.79;71.01;95765.56;5051334;28;20053;-53
2021/04/02 00:53:12;;;;;;;9.43;3.85;;;;;;;10.86;70.60;95765.78;5061839;28;20524;-53
2021/04/02 00:55:40;;;;;;;9.70;4.07;;;;;;;10.76;71.11;95755.41;5050911;28;20045;-49
2021/04/02 00:58:14;;;;;;;10.25;4.05;;;;;;;10.78;71.01;95755.84;5065170;28;20044;-55
2021/04/02 01:00:41;;;;;;;10.35;3.95;;;;;;;10.86;70.71;95757.66;5050857;28;20076;-53
2021/04/02 01:03:10;;;;;;;9.75;4.10;;;;;;;10.74;71.09;95757.66;5049472;28;20051;-50
2021/04/02 01:05:41;;;;;;;8.57;4.60;;;;;;;10.82;71.05;95761.38;5052402;28;20098;-50
2021/04/02 01:08:13;;;;;;;9.55;4.15;;;;;;;10.60;71.54;95754.47;5061310;28;20533;-50
2021/04/02 01:10:42;;;;;;;11.85;5.00;;;;;;;10.68;71.62;95759.00;5052477;28;20106;-49
2021/04/02 01:13:12;;;;;;;8.15;4.22;;;;;;;10.67;71.28;95754.72;5051619;28;20490;-52
2021/04/02 01:15:42;;;;;;;8.50;4.32;;;;;;;10.72;71.21;95754.47;5068940;28;20489;-49
2021/04/02 01:18:25;;;;;;;10.18;4.43;;;;;;;10.76;71.00;95750.78;5048086;28;20048;-49
2021/04/02 01:20:57;;;;;;;11.25;4.90;;;;;;;10.59;71.39;95756.38;5067862;28;20135;-48
2021/04/02 01:23:29;;;;;;;9.35;4.63;;;;;;;10.63;71.34;95748.41;5075424;28;20505;-51
2021/04/02 01:26:27;;;;;;;12.73;4.93;;;;;;;10.71;71.31;95753.69;5060508;28;20049;-49
2021/04/02 01:28:56;;;;;;;7.45;4.10;;;;;;;10.64;71.26;95755.38;5012773;28;20354;-48
2021/04/02 01:31:23;;;;;;;7.95;4.60;;;;;;;10.58;71.05;95749.41;5056677;28;20045;-52
2021/04/02 01:33:55;;;;;;;10.23;5.20;;;;;;;10.44;71.65;95760.53;5072599;28;20086;-50
2021/04/02 01:36:23;;;;;;;11.10;4.97;;;;;;;10.36;71.88;95761.41;5074744;28;20529;-50
2021/04/02 01:38:52;;;;;;;11.23;5.55;;;;;;;10.40;71.64;95775.88;5042592;28;20049;-50
2021/04/02 01:41:23;;;;;;;13.50;5.32;;;;;;;10.38;72.06;95766.50;5050217;28;20051;-50
2021/04/02 01:43:56;;;;;;;10.98;5.22;;;;;;;10.38;71.98;95772.69;5075025;28;20049;-49
2021/04/02 01:46:26;;;;;;;11.85;5.82;;;;;;;10.37;71.90;95781.16;5043296;28;20417;-52
2021/04/02 01:48:58;;;;;;;11.40;5.57;;;;;;;10.35;71.96;95778.78;5036125;28;20048;-48
2021/04/02 01:51:26;;;;;;;11.38;5.40;;;;;;;10.16;73.06;95771.13;5066881;28;20060;-49
2021/04/02 01:53:57;;;;;;;13.70;5.88;;;;;;;10.16;73.00;95771.13;5070386;28;20041;-49
2021/04/02 01:56:30;;;;;;;15.15;5.82;;;;;;;10.22;72.22;95758.97;5073475;28;20409;-50
2021/04/02 01:58:57;;;;;;;11.57;5.82;;;;;;;9.97;73.02;95763.50;5072634;28;20059;-48
2021/04/02 02:01:33;;;;;;;11.93;5.25;;;;;;;9.92;73.34;95771.84;5056820;28;20097;-54
2021/04/02 02:04:02;;;;;;;13.02;6.18;;;;;;;10.06;72.98;95777.75;5061610;28;20076;-47
2021/04/02 02:06:31;;;;;;;13.57;6.00;;;;;;;10.13;72.55;95765.59;5036429;28;20620;-50
2021/04/02 02:09:26;;;;;;;12.40;5.90;;;;;;;9.97;73.16;95768.91;5068066;28;20052;-51
2021/04/02 02:11:58;;;;;;;11.57;6.55;;;;;;;10.13;72.14;95765.59;5022160;28;21518;-49
2021/04/02 02:14:35;;;;;;;10.40;5.85;;;;;;;9.93;73.39;95776.09;5074537;28;20123;-49
2021/04/02 02:17:16;;;;;;;16.90;6.43;;;;;;;9.89;73.60;95769.78;5071403;28;20130;-48
2021/04/02 02:19:43;;;;;;;13.85;5.78;;;;;;;9.99;72.45;95777.50;5053665;28;20482;-49
2021/04/02 02:22:13;;;;;;;11.95;6.38;;;;;;;9.85;73.09;95777.00;5054684;28;20053;-48
2021/04/02 02:24:50;;;;;;;13.85;6.40;;;;;;;9.77;72.74;95775.94;5039373;28;20122;-52
2021/04/02 02:27:17;;;;;;;13.05;7.28;;;;;;;9.62;73.57;95779.25;5042705;28;20060;-50
2021/04/02 02:29:44;;;;;;;13.60;6.45;;;;;;;9.66;73.50;95768.56;5053918;28;20450;-49
2021/04/02 02:32:11;;;;;;;17.23;7.88;;;;;;;9.64;73.47;95776.19;5074259;28;20127;-48
2021/04/02 02:34:40;;;;;;;11.40;7.80;;;;;;;9.57;74.05;95776.72;5056730;28;20048;-47
2021/04/02 02:37:08;;;;;;;15.52;7.75;;;;;;;9.40;74.38;95783.03;5042601;28;20045;-49
2021/04/02 02:39:42;;;;;;;14.20;8.30;;;;;;;9.62;73.51;95789.22;5042888;28;20136;-47
2021/04/02 02:42:09;;;;;;;17.98;8.70;;;;;;;9.33;74.70;95783.56;5071145;28;20060;-49
2021/04/02 02:44:37;;;;;;;19.45;8.15;;;;;;;9.38;74.45;95782.56;5055770;28;20394;-50
2021/04/02 02:47:07;;;;;;;17.48;8.38;;;;;;;9.40;74.36;95776.84;5050400;28;20037;-51
2021/04/02 02:49:43;;;;;;;16.20;8.50;;;;;;;9.42;74.33;95785.41;5035139;28;20528;-50
2021/04/02 02:52:11;;;;;;;18.25;8.82;;;;;;;9.41;74.18;95778.44;5046036;28;20063;-50
2021/04/02 02:54:40;;;;;;;22.45;9.20;;;;;;;9.41;74.24;95773.03;5054288;28;20612;-51
2021/04/02 02:57:09;;;;;;;15.40;8.40;;;;;;;9.46;74.34;95781.72;5053384;28;20141;-48
2021/04/02 02:59:38;;;;;;;18.13;8.80;;;;;;;9.39;74.51;95772.56;5072486;28;20459;-52
2021/04/02 03:02:14;;;;;;;18.02;9.25;;;;;;;9.45;73.92;95773.94;5055142;28;20082;-48
2021/04/02 03:04:42;;;;;;;15.40;8.45;;;;;;;9.36;74.14;95780.22;5052568;28;20044;-52
2021/04/02 03:07:10;;;;;;;19.55;9.93;;;;;;;9.25;74.54;95780.91;5057802;28;20390;-49
2021/04/02 03:09:40;;;;;;;17.60;8.60;;;;;;;9.07;75.30;95786.41;5042428;28;20048;-51
2021/04/02 03:12:10;;;;;;;16.20;9.13;;;;;;;9.12;75.16;95778.13;5037305;28;20079;-52
2021/04/02 03:14:40;;;;;;;17.70;9.38;;;;;;;9.15;75.06;95776.69;5062355;28;20083;-53
2021/04/02 03:17:08;;;;;;;21.08;10.13;;;;;;;9.10;75.13;95783.06;5065764;28;20066;-50
2021/04/02 03:19:38;;;;;;;15.98;9.25;;;;;;;9.03;75.27;95779.28;5045438;28;20161;-50
2021/04/02 03:22:17;;;;;;;17.23;10.25;;;;;;;9.11;74.87;95776.53;5054589;28;20780;-50
2021/04/02 03:24:58;;;;;;;20.65;10.60;;;;;;;9.16;74.27;95778.25;5054235;28;20056;-49
2021/04/02 03:27:33;;;;;;;24.40;9.93;;;;;;;9.11;74.11;95787.34;5049464;28;20056;-52
2021/04/02 03:30:00;;;;;;;18.13;10.30;;;;;;;8.84;75.48;95783.19;5052574;28;20055;-49
2021/04/02 03:32:28;;;;;;;27.35;13.80;;;;;;;8.71;75.80;95789.59;5054210;28;20052;-49
2021/04/02 03:34:59;;;;;;;26.92;13.05;;;;;;;8.46;76.93;95787.78;5035740;28;20052;-49
2021/04/02 03:37:27;;;;;;;25.70;13.38;;;;;;;8.56;76.46;95793.59;5061551;28;20109;-53
2021/04/02 03:40:07;;;;;;;27.40;14.35;;;;;;;8.48;76.47;95791.72;5018822;28;20261;-48
2021/04/02 03:42:35;;;;;;;22.67;14.27;;;;;;;8.60;76.28;95786.44;5037340;28;20485;-52
2021/04/02 03:45:04;;;;;;;22.92;14.48;;;;;;;8.53;76.23;95779.97;5072275;28;20486;-48
2021/04/02 03:47:31;;;;;;;31.92;16.70;;;;;;;8.64;75.69;95786.59;5052606;28;20036;-50
2021/04/02 03:50:08;;;;;;;31.00;17.42;;;;;;;8.75;74.70;95784.34;5055121;28;20118;-53
2021/04/02 03:52:40;;;;;;;27.38;16.73;;;;;;;8.80;74.27;95792.25;5053388;28;20053;-50
2021/04/02 03:55:09;;;;;;;31.73;17.85;;;;;;;8.92;73.61;95800.44;5041446;28;20049;-52
2021/04/02 03:57:39;;;;;;;29.88;16.92;;;;;;;8.93;73.53;95793.94;5043596;28;20424;-51
2021/04/02 04:00:19;;;;;;;30.08;18.30;;;;;;;8.73;74.21;95797.34;5053516;28;20091;-52
2021/04/02 04:03:00;;;;;;;34.90;17.92;;;;;;;8.86;73.66;95796.34;5054109;28;20079;-53
2021/04/02 04:05:29;;;;;;;32.38;19.13;;;;;;;8.83;73.43;95800.47;5049431;28;20057;-48
2021/04/02 04:07:59;;;;;;;36.90;19.48;;;;;;;8.70;73.74;95798.00;5032618;28;20041;-49
2021/04/02 04:10:26;;;;;;;33.08;18.42;;;;;;;8.75;73.68;95801.31;5066425;28;20052;-52
2021/04/02 04:12:57;;;;;;;32.55;18.65;;;;;;;8.58;74.25;95795.97;5071746;28;20052;-52
2021/04/02 04:15:26;;;;;;;29.48;18.13;;;;;;;8.57;74.05;95800.56;5070964;28;20080;-50
2021/04/02 04:17:55;;;;;;;30.50;16.52;;;;;;;8.49;74.62;95806.00;5035679;28;20103;-51
2021/04/02 04:20:24;;;;;;;29.75;15.93;;;;;;;8.56;74.47;95804.41;5033351;28;20081;-49
2021/04/02 04:23:06;;;;;;;28.08;15.75;;;;;;;8.45;74.58;95807.75;5052210;28;20056;-48
2021/04/02 04:25:34;;;;;;;27.65;14.90;;;;;;;8.62;74.07;95813.91;5052738;28;20052;-53
2021/04/02 04:28:02;;;;;;;30.63;16.05;;;;;;;8.65;74.00;95807.84;5070329;28;20513;-49
2021/04/02 04:30:30;;;;;;;29.85;15.65;;;;;;;8.60;73.82;95812.63;5055971;28;20504;-49
2021/04/02 04:33:00;;;;;;;28.27;16.02;;;;;;;8.37;74.42;95814.72;5062611;28;20555;-48
2021/04/02 04:35:29;;;;;;;34.78;16.58;;;;;;;8.53;74.06;95812.34;5070903;28;20045;-50
2021/04/02 04:37:56;;;;;;;28.00;15.43;;;;;;;8.54;74.53;95805.81;5061753;28;20114;-47
2021/04/02 04:40:25;;;;;;;30.13;15.65;;;;;;;8.47;74.63;95819.78;5050063;28;20056;-51
2021/04/02 04:42:57;;;;;;;29.20;15.75;;;;;;;8.54;73.90;95812.00;5059108;28;20540;-51
2021/04/02 04:45:25;;;;;;;32.50;15.77;;;;;;;8.36;74.44;95810.44;5070701;28;20056;-53
2021/04/02 04:47:53;;;;;;;28.30;16.25;;;;;;;8.33;75.15;95816.47;5069139;28;20066;-48
2021/04/02 04:50:19;;;;;;;32.60;15.25;;;;;;;8.36;75.29;95816.63;5070809;28;20059;-48
2021/04/02 04:53:04;;;;;;;28.35;16.80;;;;;;;8.39;74.39;95821.41;5062095;28;20132;-48
2021/04/02 04:55:34;;;;;;;25.70;14.93;;;;;;;8.21;75.21;95819.81;5050368;28;20064;-48
2021/04/02 04:58:03;;;;;;;35.47;16.30;;;;;;;8.09;75.27;95812.41;5050803;28;20143;-48
2021/04/02 05:00:31;;;;;;;28.90;16.05;;;;;;;8.09;75.47;95815.09;5056739;28;20414;-48
2021/04/02 05:02:59;;;;;;;29.27;15.63;;;;;;;8.31;74.36;95819.47;5063460;28;20056;-49
2021/04/02 05:05:32;;;;;;;32.60;16.38;;;;;;;8.06;74.99;95820.31;5056362;28;20395;-49
2021/04/02 05:08:02;;;;;;;27.73;15.25;;;;;;;8.21;74.32;95819.81;5062436;28;20053;-51
2021/04/02 05:10:31;;;;;;;32.70;18.50;;;;;;;7.93;75.71;95830.16;5053403;28;20053;-51
2021/04/02 05:13:00;;;;;;;28.50;16.63;;;;;;;8.11;74.88;95826.31;5071696;28;20479;-48
2021/04/02 05:15:27;;;;;;;32.13;17.83;;;;;;;7.94;75.74;95834.44;5070107;28;20068;-49
2021/04/02 05:17:54;;;;;;;29.83;17.77;;;;;;;8.03;75.37;95834.44;5056268;28;20045;-47
2021/04/02 05:20:40;;;;;;;34.03;17.88;;;;;;;7.95;75.84;95844.09;5050608;28;20061;-47
2021/04/02 05:23:07;;;;;;;30.05;16.92;;;;;;;8.03;75.65;95837.91;5051040;28;20122;-48
2021/04/02 05:25:34;;;;;;;27.35;16.08;;;;;;;8.12;74.79;95841.38;5060635;28;20060;-51
2021/04/02 05:28:01;;;;;;;27.98;17.25;;;;;;;8.03;75.26;95837.91;5053858;28;20049;-51
2021/04/02 05:30:28;;;;;;;26.80;16.98;;;;;;;8.07;75.44;95835.38;5059521;28;20052;-49
2021/04/02 05:32:55;;;;;;;28.83;16.80;;;;;;;8.12;75.13;95846.78;5050837;28;20106;-47
2021/04/02 05:35:22;;;;;;;34.17;17.77;;;;;;;8.00;76.02;95849.34;5057992;28;20106;-48
2021/04/02 05:37:50;;;;;;;28.58;16.88;;;;;;;8.12;75.46;95843.28;5064035;28;20041;-49
2021/04/02 05:40:17;;;;;;;38.90;22.13;;;;;;;8.23;75.17;95849.94;5055807;28;20057;-50
2021/04/02 05:43:12;;;;;;;37.15;22.10;;;;;;;8.38;74.30;95854.06;5070688;28;20056;-52
2021/04/02 05:45:40;;;;;;;38.08;22.77;;;;;;;8.34;74.62;95850.41;5062643;28;20053;-52
2021/04/02 05:48:08;;;;;;;38.75;23.45;;;;;;;8.59;73.19;95856.91;5049234;28;20057;-52
2021/04/02 05:50:36;;;;;;;47.35;27.02;;;;;;;8.50;72.87;95854.22;5050763;28;20052;-52
2021/04/02 05:53:08;;;;;;;45.25;26.17;;;;;;;8.63;72.66;95861.31;5061213;28;20056;-49
2021/04/02 05:55:37;;;;;;;43.53;26.92;;;;;;;8.53;72.82;95858.19;5045717;28;20449;-55
2021/04/02 05:58:06;;;;;;;44.40;26.63;;;;;;;8.36;73.42;95865.16;5050178;28;20057;-48
2021/04/02 06:00:34;;;;;;;48.08;28.02;;;;;;;8.29;73.87;95859.47;5049990;28;20057;-49
2021/04/02 06:03:01;;;;;;;49.65;28.55;;;;;;;8.58;73.03;95858.00;5050226;28;21999;-50
2021/04/02 06:05:28;;;;;;;49.95;28.20;;;;;;;8.39;72.96;95858.38;5048757;28;20045;-50
2021/04/02 06:08:03;;;;;;;48.40;29.23;;;;;;;8.52;73.33;95873.56;5055090;28;20045;-49
2021/04/02 06:10:30;;;;;;;47.78;29.45;;;;;;;8.52;72.58;95873.56;5059467;28;20133;-50
2021/04/02 06:12:57;;;;;;;51.58;30.50;;;;;;;8.46;72.91;95874.84;5073373;28;20063;-47
2021/04/02 06:15:24;;;;;;;46.63;28.88;;;;;;;8.55;73.41;95878.31;5073791;28;20100;-48
2021/04/02 06:17:57;;;;;;;52.63;30.77;;;;;;;8.52;72.60;95884.34;5059046;28;20556;-49
2021/04/02 06:20:39;;;;;;;44.33;28.60;;;;;;;8.45;72.10;95881.34;5071905;28;20114;-47
2021/04/02 06:23:09;;;;;;;44.65;27.75;;;;;;;8.39;72.69;95883.41;5073843;28;20080;-50
2021/04/02 06:25:38;;;;;;;46.60;28.75;;;;;;;8.51;72.27;95880.06;5055538;28;20438;-51
2021/04/02 06:28:09;;;;;;;39.70;26.67;;;;;;;8.62;70.65;95880.53;5066535;22;20052;-57
2021/04/02 06:30:39;;;;;;;44.53;27.65;;;;;;;8.66;71.22;95895.75;5107763;28;20051;-55
2021/04/02 06:33:07;;;;;;;44.53;28.33;;;;;;;8.79;69.92;95887.78;5092917;28;20127;-55
2021/04/02 06:35:37;;;;;;;44.45;27.77;;;;;;;8.79;70.23;95890.47;5111089;28;20051;-54
2021/04/02 06:38:05;;;;;;;42.33;27.67;;;;;;;8.62;69.93;95888.63;5103086;28;20139;-54
2021/04/02 06:40:31;;;;;;;44.58;27.90;;;;;;;8.49;70.58;95886.91;5093653;28;20048;-55
2021/04/02 06:43:00;;;;;;;41.28;26.65;;;;;;;8.65;70.61;95894.16;5097380;28;20040;-55
2021/04/02 06:45:27;;;;;;;42.83;27.20;;;;;;;8.90;69.82;95891.72;5097535;28;20420;-55
2021/04/02 06:48:11;;;;;;;46.22;27.73;;;;;;;8.78;69.80;95888.91;5083643;28;20124;-52
2021/04/02 06:50:38;;;;;;;43.72;27.38;;;;;;;9.05;69.29;95890.41;5071363;28;20052;-54
2021/04/02 06:53:05;;;;;;;42.42;27.48;;;;;;;9.05;69.17;95891.19;5054961;28;20048;-52
2021/04/02 06:55:32;;;;;;;43.88;27.85;;;;;;;9.08;69.27;95887.84;5057478;28;20055;-54
2021/04/02 06:58:06;;;;;;;43.75;28.60;;;;;;;9.28;69.03;95889.03;5076903;28;20040;-57
2021/04/02 07:00:36;;;;;;;46.80;29.17;;;;;;;8.93;69.74;95893.78;5091121;28;20077;-56
2021/04/02 07:03:02;;;;;;;46.83;29.20;;;;;;;8.84;70.16;95890.31;5092299;28;20090;-56
2021/04/02 07:05:30;;;;;;;47.92;30.35;;;;;;;8.75;70.36;95892.25;5084585;28;20103;-57
2021/04/02 07:08:04;;;;;;;44.80;28.15;;;;;;;8.92;70.09;95897.59;5094842;28;20048;-55
2021/04/02 07:10:33;;;;;;;46.17;28.77;;;;;;;9.20;69.50;95892.56;5089948;28;20075;-54
2021/04/02 07:13:03;;;;;;;43.50;28.58;;;;;;;9.13;68.83;95898.47;5091950;28;20138;-55
2021/04/02 07:15:33;;;;;;;45.13;28.02;;;;;;;9.17;69.24;95895.94;5092766;28;20056;-55
2021/04/02 07:18:02;;;;;;;44.65;28.23;;;;;;;9.16;69.19;95893.53;5049794;28;20044;-57
2021/04/02 07:20:29;;;;;;;46.78;27.60;;;;;;;9.11;69.36;95895.31;5073924;28;20089;-56
2021/04/02 07:22:57;;;;;;;45.88;28.83;;;;;;;9.15;69.34;95897.34;5092653;28;20086;-54
2021/04/02 07:25:23;;;;;;;42.28;28.00;;;;;;;9.19;67.95;95895.59;5086681;28;20044;-54
2021/04/02 07:27:51;;;;;;;47.60;28.33;;;;;;;9.10;69.35;95898.34;5103326;28;20051;-56
2021/04/02 07:30:21;;;;;;;40.58;27.17;;;;;;;9.11;69.55;95897.22;5092076;28;20438;-55
2021/04/02 07:32:49;;;;;;;42.35;27.30;;;;;;;9.41;68.16;95895.34;5063226;28;20385;-58
2021/04/02 07:35:21;;;;;;;42.95;26.92;;;;;;;9.50;67.92;95898.00;5072687;28;20558;-52
2021/04/02 07:37:57;;;;;;;43.63;27.50;;;;;;;9.41;67.60;95902.66;5087604;28;20109;-53
2021/04/02 07:40:29;;;;;;;42.92;27.10;;;;;;;9.37;67.14;95907.91;5091724;28;20293;-55
2021/04/02 07:42:58;;;;;;;41.00;26.73;;;;;;;9.26;67.34;95909.38;5091440;28;20072;-55
2021/04/02 07:45:29;;;;;;;38.05;26.08;;;;;;;9.07;67.42;95915.19;5088885;28;20367;-55
2021/04/02 07:48:17;;;;;;;44.67;27.70;;;;;;;9.23;67.13;95912.72;5070813;28;20106;-55
2021/04/02 07:50:51;;;;;;;40.55;25.58;;;;;;;9.11;67.67;95911.50;5084904;28;20422;-54
2021/04/02 07:53:19;;;;;;;39.40;25.02;;;;;;;9.33;67.58;95909.69;5071282;28;20052;-55
2021/04/02 07:55:53;;;;;;;37.67;25.25;;;;;;;9.57;65.86;95909.88;5071193;28;20405;-54
2021/04/02 07:58:26;;;;;;;39.05;25.25;;;;;;;9.60;65.89;95909.22;5070342;28;20053;-51
2021/04/02 08:00:58;;;;;;;46.13;26.70;;;;;;;9.53;66.44;95913.56;5071352;28;20124;-55
2021/04/02 08:03:32;;;;;;;40.00;26.13;;;;;;;9.45;67.04;95920.56;5071032;28;20079;-52
2021/04/02 08:06:07;;;;;;;39.47;26.30;;;;;;;9.53;66.19;95917.03;5083513;28;20051;-53
2021/04/02 08:08:43;;;;;;;41.47;26.92;;;;;;;9.46;66.57;95930.28;5068210;28;20071;-55
2021/04/02 08:11:18;;;;;;;39.15;25.88;;;;;;;9.69;65.60;95924.59;5086354;28;20079;-55
2021/04/02 08:13:57;;;;;;;37.75;24.83;;;;;;;9.65;65.51;95921.75;5080720;28;20056;-53
2021/04/02 08:16:33;;;;;;;37.10;25.85;;;;;;;9.80;65.28;95923.09;5086017;28;20048;-53
2021/04/02 08:19:21;;;;;;;39.25;25.92;;;;;;;9.64;66.89;95916.66;5089168;28;20440;-54
2021/04/02 08:21:55;;;;;;;37.55;25.50;;;;;;;9.66;66.50;95926.03;5072175;28;20083;-52
2021/04/02 08:24:24;;;;;;;45.83;27.42;;;;;;;9.58;65.55;95924.94;5071763;28;20114;-53
2021/04/02 08:26:52;;;;;;;39.72;27.75;;;;;;;9.55;66.32;95914.81;5071713;28;20049;-54
2021/04/02 08:29:21;;;;;;;40.75;26.58;;;;;;;9.68;65.84;95920.28;5070833;28;20055;-57
2021/04/02 08:31:53;;;;;;;40.63;26.83;;;;;;;9.78;65.05;95920.72;5079010;28;20113;-53
2021/04/02 08:34:22;;;;;;;39.85;26.92;;;;;;;9.66;66.93;95925.25;5091348;28;20060;-55
2021/04/02 08:36:54;;;;;;;43.97;28.17;;;;;;;9.72;65.34;95934.75;5090476;28;20052;-54
2021/04/02 08:39:24;;;;;;;41.85;27.40;;;;;;;9.72;65.62;95926.66;5083747;28;20090;-54
2021/04/02 08:41:56;;;;;;;43.58;28.15;;;;;;;9.88;64.79;95932.25;5080358;28;20045;-56
2021/04/02 08:44:43;;;;;;;41.03;27.73;;;;;;;9.70;64.51;95921.56;5070282;28;20462;-55
2021/04/02 08:47:11;;;;;;;46.17;27.30;;;;;;;9.81;65.13;95927.38;5084529;28;20040;-55
2021/04/02 08:49:40;;;;;;;40.75;26.45;;;;;;;9.65;65.92;95929.88;5086551;28;20059;-53
2021/04/02 08:52:13;;;;;;;41.50;25.75;;;;;;;9.64;66.19;95932.88;5069277;28;20097;-55
2021/04/02 08:54:41;;;;;;;37.97;25.63;;;;;;;9.81;66.00;95928.19;5090534;28;20098;-54
2021/04/02 08:57:10;;;;;;;37.17;25.13;;;;;;;9.82;64.80;95927.06;5078963;28;20055;-55
2021/04/02 08:59:40;;;;;;;42.13;26.50;;;;;;;10.11;63.72;95924.63;5066826;28;20083;-54
2021/04/02 09:02:07;;;;;;;38.97;25.38;;;;;;;10.20;63.68;95920.75;5076851;28;20056;-53
2021/04/02 09:04:34;;;;;;;40.97;25.95;;;;;;;10.12;64.56;95915.41;5070904;28;20071;-57
2021/04/02 09:07:01;;;;;;;36.63;25.10;;;;;;;10.22;64.25;95933.94;5070225;28;20098;-54
2021/04/02 09:09:29;;;;;;;38.58;24.48;;;;;;;10.23;63.54;95927.41;5080109;28;20051;-56
2021/04/02 09:11:57;;;;;;;37.13;24.30;;;;;;;10.06;63.93;95929.13;5085888;28;20053;-55
2021/04/02 09:14:25;;;;;;;35.58;23.05;;;;;;;9.97;63.75;95927.59;5087704;28;20052;-54
2021/04/02 09:16:55;;;;;;;37.33;24.25;;;;;;;9.77;65.43;95919.13;5068311;28;20036;-57
2021/04/02 09:19:22;;;;;;;33.63;22.95;;;;;;;9.78;64.33;95918.03;5074605;28;20429;-56
2021/04/02 09:21:55;;;;;;;35.78;24.33;;;;;;;9.89;64.53;95915.72;5084535;28;20131;-55
2021/04/02 09:24:23;;;;;;;33.17;23.80;;;;;;;9.95;63.94;95921.75;5095948;28;20074;-57
2021/04/02 09:26:50;;;;;;;33.28;22.77;;;;;;;10.10;63.80;95915.72;5093857;28;20052;-58
2021/04/02 09:29:20;;;;;;;34.85;23.13;;;;;;;10.28;64.54;95922.63;5059053;28;20056;-57
2021/04/02 09:31:47;;;;;;;34.38;22.50;;;;;;;10.09;63.13;95918.78;5084387;28;20133;-51
2021/04/02 09:34:18;;;;;;;34.83;22.00;;;;;;;10.42;62.48;95914.25;5092084;28;20055;-55
2021/04/02 09:36:49;;;;;;;31.40;20.85;;;;;;;10.60;62.75;95917.59;5091196;28;20124;-55
2021/04/02 09:39:21;;;;;;;32.90;20.50;;;;;;;10.83;60.90;95911.81;5072313;28;20071;-55
2021/04/02 09:41:59;;;;;;;30.10;20.95;;;;;;;10.89;59.89;95902.38;5079933;28;20129;-53
2021/04/02 09:44:36;;;;;;;31.67;22.05;;;;;;;10.42;60.42;95903.41;5094350;28;20162;-54
2021/04/02 09:47:05;;;;;;;30.13;21.38;;;;;;;10.07;60.89;95900.97;5084471;28;20139;-55
2021/04/02 09:49:33;;;;;;;34.35;21.27;;;;;;;9.85;62.01;95901.28;5083731;28;20126;-54
2021/04/02 09:52:01;;;;;;;29.25;20.73;;;;;;;10.14;62.21;95903.16;5075160;28;20048;-57
2021/04/02 09:54:30;;;;;;;29.23;19.83;;;;;;;10.13;61.59;95898.06;5092776;28;20531;-54
2021/04/02 09:57:00;;;;;;;33.47;22.27;;;;;;;10.34;60.38;95908.91;5083915;28;20055;-56
2021/04/02 09:59:27;;;;;;;34.63;22.30;;;;;;;10.64;59.95;95909.59;5088317;28;20157;-54
2021/04/02 10:01:54;;;;;;;33.25;21.27;;;;;;;10.66;60.35;95902.75;5087187;28;20186;-56
2021/04/02 10:04:20;;;;;;;31.13;20.60;;;;;;;10.81;59.94;95898.59;5077588;28;20183;-57
2021/04/02 10:06:48;;;;;;;32.55;21.60;;;;;;;10.63;59.34;95905.31;5087956;28;20125;-54
2021/04/02 10:09:14;;;;;;;31.10;21.17;;;;;;;10.72;58.46;95897.88;5080465;28;20083;-54
2021/04/02 10:11:44;;;;;;;32.50;22.23;;;;;;;10.66;59.34;95888.41;5072836;28;20094;-56
2021/04/02 10:14:13;;;;;;;33.13;21.38;;;;;;;10.28;60.14;95890.19;5085600;28;20535;-56
2021/04/02 10:16:39;;;;;;;32.63;19.58;;;;;;;10.45;59.63;95896.56;5078254;28;20052;-56
2021/04/02 10:19:07;;;;;;;34.10;21.90;;;;;;;10.40;59.30;95889.47;5062144;28;20460;-57
2021/04/02 10:21:34;;;;;;;31.50;22.17;;;;;;;10.42;60.07;95884.50;5066310;28;20059;-54
2021/04/02 10:24:00;;;;;;;32.35;20.92;;;;;;;10.50;60.65;95880.13;5070696;28;20051;-54
2021/04/02 10:26:28;;;;;;;30.80;21.42;;;;;;;10.84;59.67;95880.91;5090975;28;20163;-55
2021/04/02 10:28:55;;;;;;;29.40;19.80;;;;;;;11.24;57.16;95878.38;5082571;28;20135;-55
2021/04/02 10:31:23;;;;;;;31.45;20.65;;;;;;;11.49;57.53;95871.03;5090096;28;20582;-52
2021/04/02 10:33:49;;;;;;;29.20;20.13;;;;;;;11.53;55.80;95869.22;5087169;28;20052;-55
2021/04/02 10:36:16;;;;;;;31.95;20.25;;;;;;;11.85;55.76;95875.66;5091950;28;20074;-55
2021/04/02 10:38:44;;;;;;;30.08;20.00;;;;;;;12.27;55.13;95869.91;5079944;28;20123;-57
2021/04/02 10:41:10;;;;;;;33.38;23.88;;;;;;;11.49;55.77;95865.63;5085235;28;20087;-53
2021/04/02 10:43:37;;;;;;;33.08;23.52;;;;;;;11.41;57.13;95861.13;5094620;28;20052;-51
2021/04/02 10:46:14;;;;;;;33.72;21.90;;;;;;;11.68;55.82;95860.41;5064385;28;20367;-54
2021/04/02 10:48:40;;;;;;;32.05;21.40;;;;;;;11.66;56.77;95862.66;5045734;28;20087;-56
2021/04/02 10:51:08;;;;;;;32.55;21.38;;;;;;;11.90;55.74;95853.75;5045967;28;20662;-56
2021/04/02 10:53:35;;;;;;;34.00;21.30;;;;;;;12.48;53.98;95861.59;5046997;28;20098;-55
2021/04/02 10:56:05;;;;;;;32.55;21.88;;;;;;;11.63;55.51;95860.66;5043404;28;20081;-56
2021/04/02 10:58:32;;;;;;;34.65;22.77;;;;;;;11.54;56.34;95859.22;5046782;28;20063;-53
2021/04/02 11:00:59;;;;;;;35.60;21.67;;;;;;;11.63;56.86;95860.66;5039660;28;20128;-54
2021/04/02 11:03:25;;;;;;;30.65;21.38;;;;;;;11.67;56.03;95863.47;5038006;28;20049;-53
2021/04/02 11:05:52;;;;;;;29.95;20.70;;;;;;;12.00;56.15;95860.63;5044006;28;20670;-54
2021/04/02 11:08:19;;;;;;;31.40;21.52;;;;;;;12.04;54.97;95847.97;5037523;28;20061;-55
2021/04/02 11:10:45;;;;;;;28.92;20.63;;;;;;;12.34;55.28;95842.97;5032469;28;20103;-56
2021/04/02 11:13:12;;;;;;;31.33;21.02;;;;;;;12.63;54.08;95849.19;5040924;28;20077;-52
2021/04/02 11:15:38;;;;;;;31.20;19.40;;;;;;;11.89;53.94;95844.06;5027861;28;20050;-51
2021/04/02 11:18:05;;;;;;;26.65;19.35;;;;;;;11.43;54.98;95850.72;5036036;28;20060;-55
2021/04/02 11:20:31;;;;;;;25.83;18.67;;;;;;;11.19;54.88;95841.47;5046266;28;20065;-55
2021/04/02 11:22:58;;;;;;;26.27;18.65;;;;;;;11.80;53.95;95848.00;5045429;28;20079;-54
2021/04/02 11:25:24;;;;;;;28.08;18.73;;;;;;;12.02;52.79;95852.91;5047383;28;20111;-48
2021/04/02 11:27:53;;;;;;;24.90;17.77;;;;;;;12.32;52.36;95837.13;5038966;28;20072;-57
2021/04/02 11:30:21;;;;;;;26.52;18.77;;;;;;;12.57;53.79;95837.00;5044198;28;20557;-57
2021/04/02 11:32:49;;;;;;;26.48;19.13;;;;;;;12.32;53.35;95834.41;5045996;28;20068;-56
2021/04/02 11:35:16;;;;;;;28.33;19.90;;;;;;;12.63;52.72;95832.91;5043702;28;20523;-58
2021/04/02 11:37:43;;;;;;;26.23;19.02;;;;;;;13.01;51.20;95837.78;5039652;28;20050;-53